Fairplay, Colorado
Current Conditions -  °F | °C
As of 6:53 AM on Wednesday 26 Nov 2014 (Local Time) from KLXV Reporting Station
Light Snow Light Snow  
Wind Chill: 14°   Ceiling: 1900
Heat Index: 25°   Visibility: 3mi
Dew Point: 22°   Wind: 12mph
Humidity: 88%   Direction: 330°NNW
Pressure: 30.28"   Gusts: NA
Location:  39.22°N, 106°W
Report Text: KLXV 261353Z AUTO 33010KT 300V010 3SM -SN BR BKN019 OVC025 M04/M06 A3028 RMK AO2 UPE1256SNB1256 SLP230 P0000 T10391056
Loading
Personal Weather Stations






























Interactive Weather Map New forecast layout! Learn more

10-Day Weather Forecast

Advertisements
Track Severe Weather on mobile